Time;durP1;ratioP1;P1;durP2;ratioP2;P2;SDS_P1;SDS_P2;PMS_P1;PMS_P2;Temp;Humidity;BMP_temperature;BMP_pressure;BME280_temperature;BME280_humidity;BME280_pressure;Samples;Min_cycle;Max_cycle;Signal;HPM_P1;HPM_P2
2022/10/04 00:00:28;;;;;;;3.23;1.33;;;;;;;13.94;54.06;96969.25;5030901;28;20262;-81
2022/10/04 00:03:24;;;;;;;3.67;1.30;;;;;;;13.98;54.67;96971.56;5027456;28;20185;-78
2022/10/04 00:05:54;;;;;;;2.90;1.80;;;;;;;13.92;54.59;96974.56;5026767;28;20199;-81
2022/10/04 00:08:44;;;;;;;2.17;1.50;;;;;;;13.97;54.50;96972.53;5032987;28;20224;-81
2022/10/04 00:11:32;;;;;;;2.77;1.20;;;;;;;13.92;54.29;96969.34;5026283;28;20223;-77
2022/10/04 00:14:04;;;;;;;2.77;1.40;;;;;;;13.90;54.36;96971.19;5029354;28;20191;-80
2022/10/04 00:16:38;;;;;;;3.07;1.60;;;;;;;13.92;54.31;96971.09;5030487;28;20187;-81
2022/10/04 00:19:14;;;;;;;4.30;1.20;;;;;;;13.94;53.99;96962.28;5029929;28;20281;-81
2022/10/04 00:21:55;;;;;;;2.97;1.10;;;;;;;13.91;54.57;96972.06;5031180;28;20189;-82
2022/10/04 00:24:27;;;;;;;6.10;1.20;;;;;;;13.87;54.30;96960.97;5030079;28;20190;-82
2022/10/04 00:27:18;;;;;;;2.10;1.40;;;;;;;13.84;54.51;96962.00;5030492;28;20198;-80
2022/10/04 00:30:13;;;;;;;4.23;1.30;;;;;;;13.85;54.93;96973.22;5029288;28;20221;-81
2022/10/04 00:32:40;;;;;;;1.70;0.90;;;;;;;13.87;54.74;96969.63;5023939;28;20198;-81
2022/10/04 00:35:25;;;;;;;2.80;1.10;;;;;;;13.80;55.15;96967.47;5030451;28;20189;-81
2022/10/04 00:38:00;;;;;;;1.20;1.00;;;;;;;13.81;54.69;96969.13;5029939;28;20192;-81
2022/10/04 00:40:32;;;;;;;1.97;1.23;;;;;;;13.68;54.55;96963.81;5029622;28;20216;-79
2022/10/04 00:43:09;;;;;;;1.73;1.13;;;;;;;13.69;55.21;96983.72;5030603;28;20193;-81
2022/10/04 00:45:47;;;;;;;2.23;1.23;;;;;;;13.68;55.09;96986.44;5029848;28;20193;-81
2022/10/04 00:48:33;;;;;;;3.07;1.17;;;;;;;13.74;55.23;96986.91;5035056;28;20186;-81
2022/10/04 00:51:06;;;;;;;2.17;1.20;;;;;;;13.81;55.27;96982.16;5029345;28;20226;-81
2022/10/04 00:53:59;;;;;;;2.97;1.63;;;;;;;13.80;54.78;96975.28;5030185;28;20758;-81
2022/10/04 00:56:35;;;;;;;1.23;1.13;;;;;;;13.78;54.75;96978.00;5020623;28;20208;-82
2022/10/04 00:59:14;;;;;;;3.07;1.17;;;;;;;13.84;54.37;96976.78;5029858;28;20203;-81
2022/10/04 01:01:46;;;;;;;1.33;1.20;;;;;;;13.88;54.71;96981.72;5030696;28;20254;-80
2022/10/04 01:04:42;;;;;;;1.40;1.13;;;;;;;13.76;55.36;96977.25;5030418;28;20222;-81
2022/10/04 01:07:13;;;;;;;2.00;1.30;;;;;;;13.76;54.99;96972.03;5034155;28;20185;-81
2022/10/04 01:09:56;;;;;;;2.97;1.37;;;;;;;13.70;55.61;96971.56;5031398;28;20632;-81
2022/10/04 01:12:32;;;;;;;3.63;1.17;;;;;;;13.66;55.07;96970.06;5029505;28;20240;-81
2022/10/04 01:15:06;;;;;;;2.93;1.03;;;;;;;13.68;55.54;96981.22;5029475;28;20197;-81
2022/10/04 01:17:33;;;;;;;3.20;1.03;;;;;;;13.63;55.79;96978.03;5029624;28;20196;-80
2022/10/04 01:20:00;;;;;;;2.80;0.97;;;;;;;13.62;55.70;96974.59;5029414;28;20681;-78
2022/10/04 01:22:32;;;;;;;1.50;1.00;;;;;;;13.59;55.96;96985.19;5028715;28;20226;-77
2022/10/04 01:24:58;;;;;;;3.23;1.13;;;;;;;13.66;55.55;96983.06;5027625;28;20668;-78
2022/10/04 01:27:40;;;;;;;1.70;1.00;;;;;;;13.78;55.18;96990.16;5029722;28;20189;-80
2022/10/04 01:30:15;;;;;;;2.17;1.30;;;;;;;13.52;54.78;96942.25;5029468;28;20186;-79
2022/10/04 01:32:42;;;;;;;1.93;1.20;;;;;;;13.81;55.33;96987.34;5028472;28;20200;-80
2022/10/04 01:35:13;;;;;;;2.97;1.20;;;;;;;13.82;54.21;96994.25;5029328;28;20198;-79
2022/10/04 01:37:40;;;;;;;1.20;1.10;;;;;;;13.87;53.81;96984.38;5028133;28;20201;-80
2022/10/04 01:40:08;;;;;;;1.13;1.03;;;;;;;13.80;54.49;96977.88;5030013;28;20186;-79
2022/10/04 01:42:45;;;;;;;3.03;1.10;;;;;;;13.83;53.97;96978.53;5028806;28;20675;-79
2022/10/04 01:45:27;;;;;;;1.70;1.13;;;;;;;13.92;54.03;96994.53;5031732;28;20731;-80
2022/10/04 01:48:07;;;;;;;2.33;1.53;;;;;;;13.88;54.60;96993.88;5028791;28;20616;-80
2022/10/04 01:50:44;;;;;;;3.43;1.40;;;;;;;13.94;55.05;96998.72;5027583;28;20311;-78
2022/10/04 01:53:29;;;;;;;3.80;1.23;;;;;;;13.85;54.71;97005.31;5028961;28;20268;-80
2022/10/04 01:56:03;;;;;;;1.90;0.97;;;;;;;13.87;55.47;97002.59;5028572;28;20194;-81
2022/10/04 01:58:40;;;;;;;1.10;1.00;;;;;;;13.81;54.92;97000.38;5028024;28;20576;-79
2022/10/04 02:01:26;;;;;;;1.40;1.30;;;;;;;13.84;55.50;97003.66;5028993;28;20211;-78
2022/10/04 02:04:09;;;;;;;1.70;1.20;;;;;;;13.84;55.04;97013.22;5028138;28;20194;-80
2022/10/04 02:06:42;;;;;;;2.07;1.33;;;;;;;13.72;55.94;97014.75;5030212;28;20715;-78
2022/10/04 02:09:14;;;;;;;1.67;1.10;;;;;;;13.73;55.94;97021.66;5028262;28;20291;-80
2022/10/04 02:11:43;;;;;;;2.67;1.30;;;;;;;13.70;55.88;97021.00;5027609;28;20225;-79
2022/10/04 02:14:17;;;;;;;2.63;1.50;;;;;;;13.71;56.42;97014.84;5027519;28;20201;-78
2022/10/04 02:16:46;;;;;;;3.03;1.30;;;;;;;13.75;56.60;97016.34;5027368;28;20189;-77
2022/10/04 02:19:14;;;;;;;3.33;1.20;;;;;;;13.69;55.97;97008.91;5028648;28;20198;-76
2022/10/04 02:21:42;;;;;;;1.97;1.23;;;;;;;13.76;56.24;97020.66;5027610;28;20652;-78
2022/10/04 02:24:11;;;;;;;2.47;1.20;;;;;;;13.68;55.99;97021.06;5028043;28;20561;-78
2022/10/04 02:26:38;;;;;;;1.80;1.20;;;;;;;13.64;56.59;97022.19;5028430;28;20200;-75
2022/10/04 02:29:05;;;;;;;1.50;0.97;;;;;;;13.68;56.69;97023.69;5028916;28;20193;-76
2022/10/04 02:34:18;;;;;;;3.33;1.27;;;;;;;13.45;56.62;97010.34;5027255;28;20575;-78
2022/10/04 02:36:46;;;;;;;2.17;1.20;;;;;;;13.58;56.44;97034.72;5029788;28;20703;-75
2022/10/04 02:39:24;;;;;;;2.67;1.00;;;;;;;13.56;56.33;97019.19;5048954;28;20200;-77
2022/10/04 02:41:57;;;;;;;1.40;1.30;;;;;;;13.64;56.19;97036.97;5047636;28;20758;-81
2022/10/04 02:44:45;;;;;;;4.10;1.50;;;;;;;13.68;56.20;97043.69;5048411;28;20271;-76
2022/10/04 02:47:15;;;;;;;1.93;1.17;;;;;;;13.68;55.85;97044.50;5045340;28;20255;-78
2022/10/04 02:49:52;;;;;;;2.63;1.10;;;;;;;13.69;56.11;97040.13;5047894;28;20227;-77
2022/10/04 02:52:36;;;;;;;2.27;1.13;;;;;;;13.68;55.99;97043.69;5047160;28;20278;-77
2022/10/04 02:55:12;;;;;;;1.30;1.10;;;;;;;13.72;56.27;97046.00;5046659;28;20589;-77
2022/10/04 02:57:41;;;;;;;4.40;1.80;;;;;;;13.64;56.66;97042.19;5047786;28;20185;-76
2022/10/04 03:00:08;;;;;;;1.67;1.27;;;;;;;13.58;57.34;97045.97;5046624;28;20192;-78
2022/10/04 03:02:35;;;;;;;2.30;1.40;;;;;;;13.65;57.41;97043.84;5047855;28;20200;-77
2022/10/04 03:05:12;;;;;;;4.30;1.43;;;;;;;13.56;56.92;97040.00;5049217;28;20218;-80
2022/10/04 03:07:39;;;;;;;3.77;1.30;;;;;;;13.56;57.41;97044.41;5047659;28;20813;-78
2022/10/04 03:10:12;;;;;;;1.83;1.73;;;;;;;13.55;57.18;97050.50;5042568;28;20193;-79
2022/10/04 03:12:40;;;;;;;2.77;1.30;;;;;;;13.45;57.83;97038.94;5026803;28;20225;-79
2022/10/04 03:15:11;;;;;;;2.13;1.40;;;;;;;13.45;57.53;97042.41;5029323;28;20226;-80
2022/10/04 03:17:41;;;;;;;2.10;1.40;;;;;;;13.43;57.47;97033.84;5047147;28;20219;-77
2022/10/04 03:20:13;;;;;;;3.50;1.20;;;;;;;13.47;57.73;97050.97;5048805;28;20193;-78
2022/10/04 03:22:43;;;;;;;1.93;1.30;;;;;;;13.36;57.93;97053.31;5047572;28;20550;-78
2022/10/04 03:25:28;;;;;;;1.53;1.20;;;;;;;13.31;57.89;97047.56;5047305;28;20183;-80
2022/10/04 03:28:01;;;;;;;2.33;1.30;;;;;;;13.35;58.58;97069.03;5048185;28;20180;-78
2022/10/04 03:30:30;;;;;;;2.37;1.37;;;;;;;13.30;58.54;97060.63;5046257;28;20229;-79
2022/10/04 03:32:58;;;;;;;3.87;1.10;;;;;;;13.30;58.78;97063.22;5047405;28;20201;-81
2022/10/04 03:35:36;;;;;;;2.33;1.30;;;;;;;13.41;58.07;97066.91;5046839;28;20196;-80
2022/10/04 03:38:11;;;;;;;1.33;1.20;;;;;;;13.51;57.70;97068.06;5047470;28;20665;-80
2022/10/04 03:40:41;;;;;;;1.50;1.40;;;;;;;13.52;57.66;97068.88;5052346;28;20206;-79
2022/10/04 03:43:11;;;;;;;3.33;1.70;;;;;;;13.66;59.42;97064.56;5048892;28;20242;-77
2022/10/04 03:45:40;;;;;;;3.40;1.47;;;;;;;13.80;57.86;97075.03;5050482;28;20188;-80
2022/10/04 03:48:11;;;;;;;2.53;1.20;;;;;;;13.65;57.81;97082.88;5056786;28;20193;-82
2022/10/04 03:50:45;;;;;;;7.77;1.43;;;;;;;13.40;58.15;97072.19;5051539;28;20680;-81
2022/10/04 03:53:41;;;;;;;1.50;1.40;;;;;;;13.38;58.45;97084.44;5051073;28;20206;-83
2022/10/04 03:56:17;;;;;;;1.70;1.47;;;;;;;13.36;58.65;97081.09;5050599;28;20293;-82
2022/10/04 03:58:45;;;;;;;1.63;1.30;;;;;;;13.42;58.21;97070.31;5052997;28;20195;-80
2022/10/04 04:01:27;;;;;;;1.80;1.33;;;;;;;13.41;58.31;97081.69;5053339;28;20537;-81
2022/10/04 04:04:30;;;;;;;2.60;1.30;;;;;;;13.31;59.33;97080.53;5055292;28;20246;-78
2022/10/04 04:07:04;;;;;;;1.83;1.53;;;;;;;13.27;59.06;97073.81;5056158;28;20538;-81
2022/10/04 04:10:09;;;;;;;2.07;1.30;;;;;;;13.13;59.60;97078.94;5050876;28;20285;-78
2022/10/04 04:12:54;;;;;;;1.60;1.43;;;;;;;13.25;59.60;97086.06;5050736;28;21027;-79
2022/10/04 04:15:21;;;;;;;1.87;1.70;;;;;;;13.14;59.54;97081.44;5051488;28;20185;-78
2022/10/04 04:17:53;;;;;;;7.50;2.07;;;;;;;12.87;59.66;97041.34;5048898;28;20681;-79
2022/10/04 04:20:35;;;;;;;3.40;1.83;;;;;;;13.06;60.24;97089.66;5051311;28;20668;-76
2022/10/04 04:23:02;;;;;;;2.57;1.73;;;;;;;13.19;59.76;97091.59;5049139;28;20201;-78
2022/10/04 04:25:33;;;;;;;1.57;1.30;;;;;;;12.98;60.39;97085.78;5051679;28;20196;-80
2022/10/04 04:28:11;;;;;;;2.43;1.73;;;;;;;13.14;60.15;97101.41;5052266;28;20217;-79
2022/10/04 04:30:47;;;;;;;4.23;1.60;;;;;;;12.95;60.98;97104.97;5053044;28;20201;-77
2022/10/04 04:33:46;;;;;;;3.17;1.47;;;;;;;12.94;60.89;97112.88;5055398;28;20211;-78
2022/10/04 04:36:15;;;;;;;2.63;1.40;;;;;;;12.93;61.15;97114.63;5027555;28;20200;-80
2022/10/04 04:41:39;;;;;;;1.53;1.30;;;;;;;12.88;61.30;97127.00;5036707;28;20186;-77
2022/10/04 04:44:17;;;;;;;2.40;1.50;;;;;;;12.95;61.35;97133.56;5049570;28;20279;-82
2022/10/04 04:46:49;;;;;;;3.77;1.30;;;;;;;13.08;60.00;97133.78;5066834;28;20205;-76
2022/10/04 04:49:30;;;;;;;3.20;1.50;;;;;;;13.19;60.30;97134.03;5057176;28;20531;-76
2022/10/04 04:51:59;;;;;;;5.67;1.73;;;;;;;13.26;60.13;97139.75;5049042;28;20232;-77
2022/10/04 04:54:26;;;;;;;3.07;1.80;;;;;;;13.43;59.26;97132.69;5049914;28;20188;-78
2022/10/04 04:56:56;;;;;;;2.63;1.53;;;;;;;13.59;59.04;97153.50;5049312;28;20190;-80
2022/10/04 04:59:26;;;;;;;3.03;1.33;;;;;;;13.59;58.88;97143.06;5048489;28;20203;-79
2022/10/04 05:01:53;;;;;;;6.23;1.70;;;;;;;13.62;59.14;97142.91;5049907;28;20196;-79
2022/10/04 05:04:22;;;;;;;1.57;1.23;;;;;;;13.64;59.05;97148.88;5056139;28;20207;-76
2022/10/04 05:07:14;;;;;;;3.33;1.47;;;;;;;13.66;59.15;97149.63;5053491;28;20221;-80
2022/10/04 05:09:41;;;;;;;3.23;1.73;;;;;;;13.75;59.09;97149.09;5050832;28;20225;-77
2022/10/04 05:12:19;;;;;;;2.63;1.30;;;;;;;13.85;58.85;97145.03;5048986;28;20224;-77
2022/10/04 05:14:52;;;;;;;2.83;1.63;;;;;;;13.75;58.87;97133.47;5048673;28;20767;-79
2022/10/04 05:17:26;;;;;;;2.30;1.40;;;;;;;13.84;58.38;97144.22;5052448;28;20201;-76
2022/10/04 05:19:57;;;;;;;2.23;1.47;;;;;;;13.75;58.98;97151.69;5050156;28;20216;-80
2022/10/04 05:22:26;;;;;;;2.80;1.53;;;;;;;13.82;58.83;97148.69;5049645;28;20189;-78
2022/10/04 05:25:08;;;;;;;2.87;1.47;;;;;;;13.91;58.58;97156.88;5049645;28;20197;-77
2022/10/04 05:27:39;;;;;;;1.83;1.30;;;;;;;13.94;58.83;97159.31;5048576;28;20199;-76
2022/10/04 05:30:39;;;;;;;1.60;1.30;;;;;;;13.96;58.31;97171.31;5049711;28;20190;-77
2022/10/04 05:33:10;;;;;;;2.03;1.20;;;;;;;13.98;58.00;97169.47;5049871;28;20735;-77
2022/10/04 05:36:01;;;;;;;1.83;1.30;;;;;;;13.94;58.44;97170.56;5045871;28;20220;-77
2022/10/04 05:38:47;;;;;;;1.57;1.30;;;;;;;13.70;58.15;97131.13;5050131;28;20265;-77
2022/10/04 05:41:31;;;;;;;1.40;1.30;;;;;;;13.97;57.64;97165.19;5049302;28;20203;-77
2022/10/04 05:44:01;;;;;;;1.77;1.47;;;;;;;14.11;57.97;97177.41;5052651;28;20216;-78
2022/10/04 05:46:33;;;;;;;2.63;1.33;;;;;;;14.43;56.61;97172.03;5049039;28;20190;-78
2022/10/04 05:49:07;;;;;;;2.87;1.20;;;;;;;14.59;56.05;97170.19;5048947;28;20182;-78
2022/10/04 05:51:48;;;;;;;2.27;1.70;;;;;;;14.64;55.56;97172.53;5049429;28;20227;-81
2022/10/04 05:54:21;;;;;;;2.63;1.37;;;;;;;14.63;55.97;97178.69;5048178;28;20277;-79
2022/10/04 05:57:31;;;;;;;6.93;1.90;;;;;;;14.54;56.14;97180.06;5049611;28;20190;-78
2022/10/04 06:00:12;;;;;;;1.43;1.27;;;;;;;14.57;56.10;97192.91;5049234;28;20196;-77
2022/10/04 06:02:42;;;;;;;2.80;1.40;;;;;;;14.69;56.30;97197.38;5048117;28;20735;-78
2022/10/04 06:05:27;;;;;;;2.70;1.37;;;;;;;14.73;54.65;97195.47;5053195;28;20696;-79
2022/10/04 06:08:25;;;;;;;4.13;1.60;;;;;;;14.93;54.43;97199.47;5048627;28;20213;-81
2022/10/04 06:11:22;;;;;;;2.30;1.20;;;;;;;14.96;54.44;97213.16;5050182;28;20186;-80
2022/10/04 06:13:51;;;;;;;2.07;1.20;;;;;;;15.09;54.44;97205.41;5049487;28;20189;-77
2022/10/04 06:16:46;;;;;;;1.27;1.10;;;;;;;15.04;54.23;97213.53;5049125;28;20225;-77
2022/10/04 06:19:25;;;;;;;2.07;1.37;;;;;;;15.27;54.02;97204.31;5050157;28;20222;-76
2022/10/04 06:22:02;;;;;;;6.00;1.63;;;;;;;15.37;53.81;97221.06;5052645;28;20185;-77
2022/10/04 06:24:36;;;;;;;1.43;1.33;;;;;;;15.07;53.63;97228.16;5050716;28;20192;-80
2022/10/04 06:27:11;;;;;;;1.77;1.37;;;;;;;15.21;54.05;97238.59;5048403;28;20186;-80
2022/10/04 06:29:44;;;;;;;1.40;1.20;;;;;;;15.17;53.66;97218.84;5047828;28;20185;-78
2022/10/04 06:32:54;;;;;;;1.23;1.13;;;;;;;15.31;53.91;97250.16;5047558;28;20214;-79
2022/10/04 06:35:41;;;;;;;3.63;1.30;;;;;;;14.94;54.66;97238.47;5041126;28;20196;-82
2022/10/04 06:39:13;;;;;;;1.90;1.30;;;;;;;15.00;55.40;97247.72;5048275;28;20288;-79
2022/10/04 06:41:59;;;;;;;1.97;1.60;;;;;;;15.15;54.96;97252.00;4995910;28;20201;-81
2022/10/04 06:44:35;;;;;;;1.77;1.33;;;;;;;15.26;54.15;97250.44;5048054;28;20630;-81
2022/10/04 06:47:29;;;;;;;4.60;1.53;;;;;;;15.43;53.54;97249.44;5047433;28;20622;-81
2022/10/04 06:50:25;;;;;;;1.73;1.30;;;;;;;15.65;52.72;97238.47;5049010;28;20186;-81
2022/10/04 06:53:03;;;;;;;1.63;1.30;;;;;;;15.82;52.57;97246.94;5051121;28;20219;-79
2022/10/04 06:55:49;;;;;;;1.27;1.10;;;;;;;15.94;52.55;97250.53;5048842;28;20202;-80
2022/10/04 06:58:32;;;;;;;1.20;1.10;;;;;;;15.94;52.16;97254.00;5048882;28;20186;-78
2022/10/04 07:01:22;;;;;;;2.33;1.33;;;;;;;15.27;53.72;97252.09;5048791;28;20182;-80
2022/10/04 07:07:40;;;;;;;2.37;1.40;;;;;;;15.16;54.58;97258.91;5053261;28;20267;-78
2022/10/04 07:10:25;;;;;;;2.50;1.10;;;;;;;15.24;54.18;97264.50;5047750;28;20181;-80
2022/10/04 07:13:33;;;;;;;2.60;1.20;;;;;;;15.51;53.22;97262.84;5045859;28;20292;-79
2022/10/04 07:16:15;;;;;;;1.20;1.10;;;;;;;15.68;52.83;97262.66;4969898;28;20200;-78
2022/10/04 07:19:08;;;;;;;3.20;1.50;;;;;;;15.61;51.84;97216.97;5042809;28;20200;-77
2022/10/04 07:21:49;;;;;;;1.77;1.20;;;;;;;15.86;51.73;97261.50;5047009;28;20186;-80
2022/10/04 07:24:26;;;;;;;1.47;1.20;;;;;;;15.98;51.41;97265.94;5047138;28;20193;-79
2022/10/04 07:26:54;;;;;;;2.37;1.40;;;;;;;16.21;51.36;97270.53;5030937;28;20215;-78
2022/10/04 07:29:31;;;;;;;1.80;1.70;;;;;;;16.22;51.14;97259.13;5046315;28;20682;-80
2022/10/04 07:32:33;;;;;;;2.07;1.10;;;;;;;16.03;51.51;97274.31;5063025;28;20279;-80
2022/10/04 07:35:08;;;;;;;2.60;1.30;;;;;;;15.80;52.02;97269.72;5047663;28;20190;-79
2022/10/04 07:37:50;;;;;;;2.67;1.20;;;;;;;15.64;52.97;97276.81;5047390;28;20185;-80
2022/10/04 07:40:20;;;;;;;1.50;1.07;;;;;;;15.83;52.97;97277.34;5047648;28;20194;-78
2022/10/04 07:42:53;;;;;;;5.27;1.30;;;;;;;15.94;52.12;97274.91;5045098;28;20191;-78
2022/10/04 07:45:26;;;;;;;1.43;1.10;;;;;;;15.83;51.60;97290.41;5047671;28;20189;-77
2022/10/04 07:48:23;;;;;;;3.97;1.10;;;;;;;15.70;52.44;97292.13;5062117;28;20187;-78
2022/10/04 07:50:53;;;;;;;2.47;1.40;;;;;;;15.53;52.91;97294.91;5043222;28;20244;-79
2022/10/04 07:53:36;;;;;;;2.47;1.40;;;;;;;15.51;52.58;97296.78;5048929;28;20736;-78
2022/10/04 07:56:11;;;;;;;2.57;1.10;;;;;;;15.39;53.25;97292.28;5048865;28;20208;-78
2022/10/04 07:59:05;;;;;;;5.30;1.43;;;;;;;15.49;52.34;97290.81;5048773;28;20709;-79
2022/10/04 08:02:05;;;;;;;3.77;1.70;;;;;;;15.60;52.13;97301.41;5049419;28;20273;-81
2022/10/04 08:04:42;;;;;;;2.20;1.50;;;;;;;15.53;52.44;97302.75;5050248;28;20627;-82
2022/10/04 08:07:31;;;;;;;2.43;1.20;;;;;;;15.44;52.29;97266.75;5047084;28;20196;-78
2022/10/04 08:10:19;;;;;;;1.30;1.00;;;;;;;15.81;51.89;97300.09;5047436;28;20182;-79
2022/10/04 08:12:56;;;;;;;2.70;1.47;;;;;;;15.92;51.22;97297.66;5049828;28;20249;-80
2022/10/04 08:15:39;;;;;;;3.17;1.40;;;;;;;16.00;51.21;97315.47;5048894;28;20198;-76
2022/10/04 08:18:16;;;;;;;2.30;1.57;;;;;;;15.92;51.25;97310.72;5046216;28;20323;-80
2022/10/04 08:21:06;;;;;;;2.37;1.70;;;;;;;15.67;51.96;97320.16;5063484;28;20206;-79
2022/10/04 08:24:04;;;;;;;2.93;1.17;;;;;;;15.63;52.22;97332.56;5051703;28;20201;-84
2022/10/04 08:27:00;;;;;;;4.60;1.40;;;;;;;15.52;52.61;97339.41;5052721;28;20272;-79
2022/10/04 08:30:02;;;;;;;2.67;1.40;;;;;;;15.65;52.47;97332.47;5045149;28;20264;-76
2022/10/04 08:33:05;;;;;;;3.00;1.57;;;;;;;15.58;52.23;97339.03;5044927;28;20221;-83
2022/10/04 08:35:59;;;;;;;2.37;1.23;;;;;;;15.60;52.56;97337.97;5048950;28;20192;-81
2022/10/04 08:38:41;;;;;;;2.23;1.30;;;;;;;15.53;52.01;97333.22;5050533;28;20209;-80
2022/10/04 08:41:33;;;;;;;1.33;1.23;;;;;;;15.56;52.40;97346.91;5051449;28;20292;-79
2022/10/04 08:44:37;;;;;;;1.57;1.10;;;;;;;15.60;52.41;97345.81;5049352;28;20692;-79
2022/10/04 08:47:38;;;;;;;2.13;1.10;;;;;;;15.85;52.11;97347.75;5048756;28;20197;-82
2022/10/04 08:50:08;;;;;;;1.50;1.40;;;;;;;15.66;52.08;97352.44;5065071;28;20707;-82
2022/10/04 08:53:12;;;;;;;3.03;1.50;;;;;;;15.59;52.16;97357.19;5049275;28;20221;-82
2022/10/04 08:56:00;;;;;;;2.47;2.23;;;;;;;15.76;52.43;97350.94;5050732;28;20223;-80
2022/10/04 08:58:50;;;;;;;2.00;1.20;;;;;;;15.93;50.55;97350.75;5049982;28;20201;-81
2022/10/04 09:01:39;;;;;;;2.37;1.27;;;;;;;15.98;50.54;97351.28;5051699;28;20190;-80
2022/10/04 09:04:40;;;;;;;2.93;1.43;;;;;;;16.01;50.73;97375.44;5052353;28;20182;-80
2022/10/04 09:07:58;;;;;;;1.10;1.10;;;;;;;16.08;50.54;97358.47;5049316;28;20191;-81
2022/10/04 09:10:34;;;;;;;3.53;1.73;;;;;;;16.20;50.55;97359.47;5015390;28;20200;-78
2022/10/04 09:13:23;;;;;;;1.37;1.27;;;;;;;16.37;49.97;97361.84;5067444;28;20217;-79
2022/10/04 09:15:55;;;;;;;2.10;1.30;;;;;;;15.98;50.01;97353.91;5050219;28;20185;-79
2022/10/04 09:19:07;;;;;;;2.33;1.23;;;;;;;15.94;50.66;97357.66;5048502;28;20278;-80
2022/10/04 09:21:46;;;;;;;1.50;1.40;;;;;;;15.91;51.44;97365.69;5047812;28;20186;-82
2022/10/04 09:24:25;;;;;;;2.83;1.80;;;;;;;16.05;50.78;97357.81;5047482;28;20197;-82
2022/10/04 09:27:05;;;;;;;1.20;1.10;;;;;;;15.97;50.94;97357.47;5047294;28;20248;-80
2022/10/04 09:29:59;;;;;;;1.47;1.33;;;;;;;15.97;50.90;97366.13;5049273;28;20193;-81
2022/10/04 09:33:09;;;;;;;2.60;1.50;;;;;;;15.86;50.93;97357.28;5048363;28;20222;-81
2022/10/04 09:35:54;;;;;;;1.87;1.10;;;;;;;16.06;50.64;97364.72;5033516;28;20202;-81
2022/10/04 09:38:45;;;;;;;2.07;1.30;;;;;;;16.01;50.03;97364.19;5050305;28;20191;-83
2022/10/04 09:41:57;;;;;;;1.20;1.00;;;;;;;16.02;50.14;97364.06;5049331;28;20673;-81
2022/10/04 09:44:35;;;;;;;1.97;1.20;;;;;;;15.87;50.65;97367.63;5049295;28;20198;-82
2022/10/04 09:47:09;;;;;;;1.27;1.00;;;;;;;15.66;50.55;97371.53;5047119;28;20193;-81
2022/10/04 09:50:17;;;;;;;1.83;1.40;;;;;;;15.42;51.27;97360.81;5047761;28;20196;-80
2022/10/04 09:53:02;;;;;;;3.27;1.50;;;;;;;15.42;52.10;97357.31;5048337;28;20271;-80
2022/10/04 09:55:35;;;;;;;2.03;1.37;;;;;;;15.55;52.14;97360.94;5048430;28;20749;-79
2022/10/04 09:58:30;;;;;;;2.33;1.10;;;;;;;15.77;51.77;97360.44;5047804;28;20278;-81
2022/10/04 10:01:03;;;;;;;2.80;1.20;;;;;;;15.67;51.37;97368.00;5008099;28;20579;-80
2022/10/04 10:03:50;;;;;;;1.30;1.17;;;;;;;15.79;50.76;97355.97;5049520;28;20576;-81
2022/10/04 10:06:59;;;;;;;1.53;1.33;;;;;;;15.92;50.89;97364.75;5048078;28;20260;-78
2022/10/04 10:16:10;;;;;;;3.03;1.20;;;;;;;15.88;50.87;97369.31;5047338;28;20197;-78
2022/10/04 10:18:58;;;;;;;2.77;1.63;;;;;;;15.65;50.61;97366.41;5049796;28;20778;-78
2022/10/04 10:21:54;;;;;;;1.77;1.10;;;;;;;15.65;50.89;97369.03;5047787;28;20530;-77
2022/10/04 10:24:28;;;;;;;1.53;1.40;;;;;;;15.78;50.64;97369.97;5048587;28;20193;-79
2022/10/04 10:27:45;;;;;;;2.70;1.60;;;;;;;15.88;50.22;97361.47;5049229;28;20223;-78
2022/10/04 10:30:23;;;;;;;1.20;1.10;;;;;;;15.72;50.43;97373.81;5028772;28;20221;-78
2022/10/04 10:33:09;;;;;;;1.20;1.10;;;;;;;15.92;49.73;97367.34;5046273;28;20236;-80
2022/10/04 10:36:04;;;;;;;1.77;1.20;;;;;;;15.97;49.79;97362.69;5050527;28;20186;-82
2022/10/04 10:39:05;;;;;;;1.47;1.20;;;;;;;15.65;50.02;97350.75;5055074;28;20194;-77
2022/10/04 10:41:42;;;;;;;1.30;1.20;;;;;;;15.99;50.18;97364.25;5050133;28;20197;-79
2022/10/04 10:44:37;;;;;;;2.73;1.40;;;;;;;16.60;49.33;97360.41;5051507;28;20256;-82
2022/10/04 10:47:29;;;;;;;3.53;1.20;;;;;;;16.71;47.78;97366.63;5048327;28;20201;-79
2022/10/04 10:50:18;;;;;;;1.40;1.30;;;;;;;16.54;48.28;97360.81;5051054;28;20190;-79
2022/10/04 10:53:06;;;;;;;1.40;1.27;;;;;;;16.84;47.68;97357.03;5064676;28;20214;-79
2022/10/04 10:55:48;;;;;;;2.40;1.57;;;;;;;16.88;47.70;97358.50;5046596;28;20198;-80
2022/10/04 10:58:48;;;;;;;3.17;1.20;;;;;;;16.58;47.96;97363.13;5048902;28;20197;-78
2022/10/04 11:01:40;;;;;;;1.50;1.20;;;;;;;16.71;48.15;97347.50;5049007;28;20197;-77
2022/10/04 11:04:41;;;;;;;1.10;0.90;;;;;;;16.95;47.51;97343.25;5051770;28;20212;-77
2022/10/04 11:07:30;;;;;;;3.43;1.33;;;;;;;17.10;46.92;97347.47;5047153;28;20441;-80
2022/10/04 11:10:02;;;;;;;1.80;1.43;;;;;;;17.03;46.84;97343.59;5048495;28;20212;-81
2022/10/04 11:13:11;;;;;;;2.03;1.20;;;;;;;16.99;46.63;97334.25;5048407;28;20669;-78
2022/10/04 11:15:57;;;;;;;1.10;1.00;;;;;;;17.03;47.22;97336.59;5050085;28;20192;-80
2022/10/04 11:18:47;;;;;;;0.93;0.90;;;;;;;16.56;47.05;97361.56;5049369;28;20199;-80
2022/10/04 11:25:34;;;;;;;1.20;0.97;;;;;;;16.67;47.72;97348.63;5033313;28;20245;-80
2022/10/04 11:28:11;;;;;;;3.23;0.93;;;;;;;16.85;46.88;97345.66;5046408;28;20256;-81
2022/10/04 11:30:59;;;;;;;1.43;1.10;;;;;;;17.13;45.89;97346.41;5047982;28;20217;-81
2022/10/04 11:33:56;;;;;;;0.90;0.90;;;;;;;17.13;46.38;97341.19;5047955;28;20217;-83
2022/10/04 11:36:47;;;;;;;2.97;1.13;;;;;;;17.10;45.79;97288.09;5045632;28;20192;-80
2022/10/04 11:39:20;;;;;;;1.00;0.90;;;;;;;17.20;45.75;97356.41;5044740;28;20310;-80
2022/10/04 11:42:41;;;;;;;1.20;0.93;;;;;;;17.12;45.89;97340.38;5030403;28;20203;-81
2022/10/04 11:46:01;;;;;;;0.80;0.80;;;;;;;17.31;43.39;97345.19;5045685;28;20217;-80
2022/10/04 11:49:07;;;;;;;1.23;1.13;;;;;;;17.19;45.04;97357.31;5030945;28;20197;-78
2022/10/04 11:52:03;;;;;;;1.30;1.20;;;;;;;17.38;45.06;97342.06;5045682;28;20195;-80
2022/10/04 11:54:50;;;;;;;1.63;1.23;;;;;;;17.79;44.61;97339.22;5044093;28;20268;-76
2022/10/04 11:57:58;;;;;;;2.77;1.10;;;;;;;17.86;44.66;97351.81;5047203;28;20192;-79
2022/10/04 12:00:48;;;;;;;2.33;1.50;;;;;;;18.02;44.48;97330.59;5039210;28;20689;-79
2022/10/04 12:03:53;;;;;;;3.80;1.57;;;;;;;18.03;44.76;97352.41;5062550;28;20191;-79
2022/10/04 12:06:41;;;;;;;1.53;1.10;;;;;;;17.77;43.47;97360.31;5050722;28;20236;-81
2022/10/04 12:09:30;;;;;;;1.10;1.00;;;;;;;17.59;43.85;97345.03;5029234;28;20235;-80
2022/10/04 12:15:07;;;;;;;2.20;1.17;;;;;;;18.18;42.13;97353.94;5050264;28;20708;-80
2022/10/04 12:17:47;;;;;;;2.57;1.20;;;;;;;17.82;42.13;97347.75;5050956;28;20192;-79
2022/10/04 12:20:33;;;;;;;2.20;1.10;;;;;;;17.76;41.51;97361.22;5050477;28;20196;-79
2022/10/04 12:23:06;;;;;;;1.97;1.10;;;;;;;17.67;41.52;97348.78;5054052;28;20205;-81
2022/10/04 12:25:58;;;;;;;0.93;0.70;;;;;;;17.70;41.10;97353.81;5052900;28;20190;-81
2022/10/04 12:28:36;;;;;;;1.17;0.87;;;;;;;17.94;40.35;97358.28;5053087;28;20183;-79
2022/10/04 12:31:22;;;;;;;0.77;0.70;;;;;;;17.87;41.04;97363.97;5053699;28;20224;-80
2022/10/04 12:34:00;;;;;;;1.20;0.90;;;;;;;18.16;40.92;97354.06;5051715;28;20492;-77
2022/10/04 12:37:04;;;;;;;4.27;1.70;;;;;;;18.44;40.88;97355.59;5051582;28;20206;-80
2022/10/04 12:39:43;;;;;;;0.90;0.70;;;;;;;18.31;40.77;97360.00;5052533;28;20188;-83
2022/10/04 12:42:30;;;;;;;0.80;0.80;;;;;;;17.98;41.48;97350.13;5054577;28;20190;-81
2022/10/04 12:45:32;;;;;;;1.10;1.00;;;;;;;17.96;42.05;97365.09;5057082;28;20193;-80
2022/10/04 12:48:20;;;;;;;2.40;1.10;;;;;;;17.59;42.85;97350.25;5055847;28;20185;-83
2022/10/04 12:50:52;;;;;;;2.87;1.33;;;;;;;17.66;43.48;97362.00;5056517;28;20661;-80
2022/10/04 12:53:42;;;;;;;1.07;1.00;;;;;;;17.53;43.01;97355.91;5053955;28;20318;-83
2022/10/04 12:56:34;;;;;;;2.07;1.23;;;;;;;17.35;42.36;97351.91;5052065;28;20579;-80
2022/10/04 12:59:39;;;;;;;2.33;1.00;;;;;;;17.40;43.10;97348.03;5068267;28;20199;-81
2022/10/04 13:02:31;;;;;;;0.70;0.70;;;;;;;17.52;43.17;97336.75;5052019;28;20201;-80
2022/10/04 13:05:28;;;;;;;1.90;1.10;;;;;;;17.65;42.58;97352.44;5055014;28;20228;-80
2022/10/04 13:08:20;;;;;;;0.73;0.73;;;;;;;17.37;42.59;97345.59;5052616;28;20231;-79